sensor_id;sensor_type;location;lat;lon;timestamp;P1;durP1;ratioP1;P2;durP2;ratioP2
35891;SDS011;21993;42.672;23.296;2024-02-16T00:00:09;16.43;;;9.60;;
35891;SDS011;21993;42.672;23.296;2024-02-16T00:02:38;18.67;;;9.80;;
35891;SDS011;21993;42.672;23.296;2024-02-16T00:05:05;17.77;;;9.77;;
35891;SDS011;21993;42.672;23.296;2024-02-16T00:07:33;17.40;;;9.97;;
35891;SDS011;21993;42.672;23.296;2024-02-16T00:09:59;18.33;;;10.67;;
35891;SDS011;21993;42.672;23.296;2024-02-16T00:12:25;16.43;;;9.57;;
35891;SDS011;21993;42.672;23.296;2024-02-16T00:14:50;16.20;;;9.43;;
35891;SDS011;21993;42.672;23.296;2024-02-16T00:17:16;19.20;;;9.67;;
35891;SDS011;21993;42.672;23.296;2024-02-16T00:19:41;20.20;;;9.53;;
35891;SDS011;21993;42.672;23.296;2024-02-16T00:22:07;19.93;;;9.87;;
35891;SDS011;21993;42.672;23.296;2024-02-16T00:24:33;18.10;;;10.13;;
35891;SDS011;21993;42.672;23.296;2024-02-16T00:26:59;22.43;;;10.47;;
35891;SDS011;21993;42.672;23.296;2024-02-16T00:29:25;15.77;;;10.13;;
35891;SDS011;21993;42.672;23.296;2024-02-16T00:31:51;19.37;;;10.33;;
35891;SDS011;21993;42.672;23.296;2024-02-16T00:34:16;24.90;;;11.30;;
35891;SDS011;21993;42.672;23.296;2024-02-16T00:36:42;20.60;;;11.03;;
35891;SDS011;21993;42.672;23.296;2024-02-16T00:39:07;15.40;;;9.97;;
35891;SDS011;21993;42.672;23.296;2024-02-16T00:41:33;16.40;;;10.10;;
35891;SDS011;21993;42.672;23.296;2024-02-16T00:43:58;19.20;;;9.73;;
35891;SDS011;21993;42.672;23.296;2024-02-16T00:46:24;18.17;;;11.00;;
35891;SDS011;21993;42.672;23.296;2024-02-16T00:48:50;18.97;;;9.67;;
35891;SDS011;21993;42.672;23.296;2024-02-16T00:51:17;18.17;;;10.13;;
35891;SDS011;21993;42.672;23.296;2024-02-16T00:53:42;19.97;;;10.17;;
35891;SDS011;21993;42.672;23.296;2024-02-16T00:56:08;18.33;;;9.60;;
35891;SDS011;21993;42.672;23.296;2024-02-16T00:58:34;18.40;;;10.63;;
35891;SDS011;21993;42.672;23.296;2024-02-16T01:01:00;16.80;;;10.23;;
35891;SDS011;21993;42.672;23.296;2024-02-16T01:03:25;19.43;;;10.33;;
35891;SDS011;21993;42.672;23.296;2024-02-16T01:05:54;16.30;;;9.40;;
35891;SDS011;21993;42.672;23.296;2024-02-16T01:08:19;16.53;;;9.80;;
35891;SDS011;21993;42.672;23.296;2024-02-16T01:10:45;17.87;;;10.63;;
35891;SDS011;21993;42.672;23.296;2024-02-16T01:13:11;19.30;;;9.50;;
35891;SDS011;21993;42.672;23.296;2024-02-16T01:15:37;16.93;;;10.50;;
35891;SDS011;21993;42.672;23.296;2024-02-16T01:18:03;16.73;;;9.20;;
35891;SDS011;21993;42.672;23.296;2024-02-16T01:20:30;19.57;;;10.10;;
35891;SDS011;21993;42.672;23.296;2024-02-16T01:22:56;16.77;;;9.23;;
35891;SDS011;21993;42.672;23.296;2024-02-16T01:25:22;19.03;;;11.07;;
35891;SDS011;21993;42.672;23.296;2024-02-16T01:27:47;16.90;;;9.73;;
35891;SDS011;21993;42.672;23.296;2024-02-16T01:30:13;12.27;;;8.90;;
35891;SDS011;21993;42.672;23.296;2024-02-16T01:32:40;17.47;;;10.27;;
35891;SDS011;21993;42.672;23.296;2024-02-16T01:35:06;17.20;;;9.63;;
35891;SDS011;21993;42.672;23.296;2024-02-16T01:37:32;15.73;;;8.70;;
35891;SDS011;21993;42.672;23.296;2024-02-16T01:39:57;16.43;;;9.73;;
35891;SDS011;21993;42.672;23.296;2024-02-16T01:42:24;14.77;;;9.03;;
35891;SDS011;21993;42.672;23.296;2024-02-16T01:44:49;13.70;;;8.90;;
35891;SDS011;21993;42.672;23.296;2024-02-16T01:47:16;13.87;;;8.83;;
35891;SDS011;21993;42.672;23.296;2024-02-16T01:49:43;16.77;;;9.93;;
35891;SDS011;21993;42.672;23.296;2024-02-16T01:52:09;14.57;;;8.30;;
35891;SDS011;21993;42.672;23.296;2024-02-16T01:54:35;17.00;;;9.20;;
35891;SDS011;21993;42.672;23.296;2024-02-16T01:57:01;18.83;;;9.50;;
35891;SDS011;21993;42.672;23.296;2024-02-16T01:59:26;15.33;;;9.10;;
35891;SDS011;21993;42.672;23.296;2024-02-16T02:01:52;16.53;;;9.07;;
35891;SDS011;21993;42.672;23.296;2024-02-16T02:04:18;21.33;;;9.93;;
35891;SDS011;21993;42.672;23.296;2024-02-16T02:06:45;14.43;;;8.60;;
35891;SDS011;21993;42.672;23.296;2024-02-16T02:09:10;14.27;;;9.03;;
35891;SDS011;21993;42.672;23.296;2024-02-16T02:11:36;13.97;;;8.87;;
35891;SDS011;21993;42.672;23.296;2024-02-16T02:14:02;15.30;;;9.43;;
35891;SDS011;21993;42.672;23.296;2024-02-16T02:16:28;14.23;;;8.93;;
35891;SDS011;21993;42.672;23.296;2024-02-16T02:18:53;16.27;;;9.50;;
35891;SDS011;21993;42.672;23.296;2024-02-16T02:21:19;20.73;;;9.80;;
35891;SDS011;21993;42.672;23.296;2024-02-16T02:23:44;15.27;;;9.13;;
35891;SDS011;21993;42.672;23.296;2024-02-16T02:26:13;16.07;;;9.50;;
35891;SDS011;21993;42.672;23.296;2024-02-16T02:28:39;13.07;;;9.60;;
35891;SDS011;21993;42.672;23.296;2024-02-16T02:31:04;15.30;;;9.93;;
35891;SDS011;21993;42.672;23.296;2024-02-16T02:33:30;18.53;;;10.00;;
35891;SDS011;21993;42.672;23.296;2024-02-16T02:35:56;13.43;;;9.93;;
35891;SDS011;21993;42.672;23.296;2024-02-16T02:38:22;16.43;;;8.80;;
35891;SDS011;21993;42.672;23.296;2024-02-16T02:40:47;15.77;;;9.33;;
35891;SDS011;21993;42.672;23.296;2024-02-16T02:43:12;12.73;;;9.57;;
35891;SDS011;21993;42.672;23.296;2024-02-16T02:45:39;15.57;;;9.33;;
35891;SDS011;21993;42.672;23.296;2024-02-16T02:48:04;16.13;;;8.77;;
35891;SDS011;21993;42.672;23.296;2024-02-16T02:50:30;18.70;;;9.20;;
35891;SDS011;21993;42.672;23.296;2024-02-16T02:52:56;14.13;;;9.43;;
35891;SDS011;21993;42.672;23.296;2024-02-16T02:55:22;15.13;;;8.10;;
35891;SDS011;21993;42.672;23.296;2024-02-16T02:57:47;15.30;;;9.70;;
35891;SDS011;21993;42.672;23.296;2024-02-16T03:00:13;13.97;;;8.73;;
35891;SDS011;21993;42.672;23.296;2024-02-16T03:02:40;16.93;;;9.27;;
35891;SDS011;21993;42.672;23.296;2024-02-16T03:05:06;12.83;;;9.20;;
35891;SDS011;21993;42.672;23.296;2024-02-16T03:07:32;15.60;;;8.10;;
35891;SDS011;21993;42.672;23.296;2024-02-16T03:09:59;13.77;;;8.90;;
35891;SDS011;21993;42.672;23.296;2024-02-16T03:12:24;13.47;;;8.70;;
35891;SDS011;21993;42.672;23.296;2024-02-16T03:14:50;12.53;;;8.57;;
35891;SDS011;21993;42.672;23.296;2024-02-16T03:17:15;11.50;;;8.57;;
35891;SDS011;21993;42.672;23.296;2024-02-16T03:19:41;13.23;;;8.60;;
35891;SDS011;21993;42.672;23.296;2024-02-16T03:22:07;15.70;;;8.13;;
35891;SDS011;21993;42.672;23.296;2024-02-16T03:24:33;13.07;;;8.53;;
35891;SDS011;21993;42.672;23.296;2024-02-16T03:26:58;16.10;;;8.60;;
35891;SDS011;21993;42.672;23.296;2024-02-16T03:29:25;13.87;;;9.03;;
35891;SDS011;21993;42.672;23.296;2024-02-16T03:31:51;16.73;;;8.40;;
35891;SDS011;21993;42.672;23.296;2024-02-16T03:34:17;13.47;;;8.53;;
35891;SDS011;21993;42.672;23.296;2024-02-16T03:36:42;18.10;;;9.23;;
35891;SDS011;21993;42.672;23.296;2024-02-16T03:39:08;12.40;;;8.40;;
35891;SDS011;21993;42.672;23.296;2024-02-16T03:41:34;18.80;;;9.53;;
35891;SDS011;21993;42.672;23.296;2024-02-16T03:44:00;14.23;;;8.83;;
35891;SDS011;21993;42.672;23.296;2024-02-16T03:46:26;13.03;;;8.70;;
35891;SDS011;21993;42.672;23.296;2024-02-16T03:48:52;15.20;;;8.17;;
35891;SDS011;21993;42.672;23.296;2024-02-16T03:51:18;14.20;;;8.53;;
35891;SDS011;21993;42.672;23.296;2024-02-16T03:53:43;15.20;;;8.73;;
35891;SDS011;21993;42.672;23.296;2024-02-16T03:56:12;15.10;;;9.97;;
35891;SDS011;21993;42.672;23.296;2024-02-16T03:58:43;18.13;;;8.40;;
35891;SDS011;21993;42.672;23.296;2024-02-16T04:01:08;16.47;;;8.70;;
35891;SDS011;21993;42.672;23.296;2024-02-16T04:03:34;16.60;;;8.93;;
35891;SDS011;21993;42.672;23.296;2024-02-16T04:06:00;14.63;;;8.83;;
35891;SDS011;21993;42.672;23.296;2024-02-16T04:08:26;18.40;;;9.53;;
35891;SDS011;21993;42.672;23.296;2024-02-16T04:10:52;15.73;;;8.67;;
35891;SDS011;21993;42.672;23.296;2024-02-16T04:13:17;15.50;;;8.67;;
35891;SDS011;21993;42.672;23.296;2024-02-16T04:15:43;13.40;;;8.50;;
35891;SDS011;21993;42.672;23.296;2024-02-16T04:18:08;12.17;;;7.47;;
35891;SDS011;21993;42.672;23.296;2024-02-16T04:20:34;15.20;;;8.07;;
35891;SDS011;21993;42.672;23.296;2024-02-16T04:23:00;14.57;;;8.47;;
35891;SDS011;21993;42.672;23.296;2024-02-16T04:25:26;13.30;;;7.53;;
35891;SDS011;21993;42.672;23.296;2024-02-16T04:27:51;16.37;;;8.20;;
35891;SDS011;21993;42.672;23.296;2024-02-16T04:30:18;13.80;;;9.10;;
35891;SDS011;21993;42.672;23.296;2024-02-16T04:32:44;15.03;;;8.17;;
35891;SDS011;21993;42.672;23.296;2024-02-16T04:35:09;12.40;;;8.60;;
35891;SDS011;21993;42.672;23.296;2024-02-16T04:37:38;12.80;;;8.10;;
35891;SDS011;21993;42.672;23.296;2024-02-16T04:40:06;15.33;;;9.20;;
35891;SDS011;21993;42.672;23.296;2024-02-16T04:42:33;13.77;;;8.73;;
35891;SDS011;21993;42.672;23.296;2024-02-16T04:44:58;11.93;;;8.60;;
35891;SDS011;21993;42.672;23.296;2024-02-16T04:47:33;18.13;;;10.50;;
35891;SDS011;21993;42.672;23.296;2024-02-16T04:49:58;18.53;;;10.33;;
35891;SDS011;21993;42.672;23.296;2024-02-16T04:52:24;15.60;;;9.43;;
35891;SDS011;21993;42.672;23.296;2024-02-16T04:54:49;13.00;;;8.37;;
35891;SDS011;21993;42.672;23.296;2024-02-16T04:57:15;18.17;;;10.27;;
35891;SDS011;21993;42.672;23.296;2024-02-16T04:59:40;22.10;;;10.37;;
35891;SDS011;21993;42.672;23.296;2024-02-16T05:02:06;15.43;;;9.83;;
35891;SDS011;21993;42.672;23.296;2024-02-16T05:04:32;13.70;;;8.33;;
35891;SDS011;21993;42.672;23.296;2024-02-16T05:06:57;14.53;;;8.47;;
35891;SDS011;21993;42.672;23.296;2024-02-16T05:09:23;14.37;;;9.00;;
35891;SDS011;21993;42.672;23.296;2024-02-16T05:11:51;14.37;;;8.77;;
35891;SDS011;21993;42.672;23.296;2024-02-16T05:14:17;16.40;;;9.40;;
35891;SDS011;21993;42.672;23.296;2024-02-16T05:16:46;14.70;;;9.10;;
35891;SDS011;21993;42.672;23.296;2024-02-16T05:19:12;23.07;;;10.43;;
35891;SDS011;21993;42.672;23.296;2024-02-16T05:21:37;22.27;;;9.83;;
35891;SDS011;21993;42.672;23.296;2024-02-16T05:24:03;19.37;;;10.90;;
35891;SDS011;21993;42.672;23.296;2024-02-16T05:26:29;18.43;;;11.13;;
35891;SDS011;21993;42.672;23.296;2024-02-16T05:28:54;22.90;;;13.43;;
35891;SDS011;21993;42.672;23.296;2024-02-16T05:31:20;20.00;;;11.97;;
35891;SDS011;21993;42.672;23.296;2024-02-16T05:33:47;21.70;;;11.47;;
35891;SDS011;21993;42.672;23.296;2024-02-16T05:36:17;18.73;;;11.30;;
35891;SDS011;21993;42.672;23.296;2024-02-16T05:38:45;21.73;;;11.73;;
35891;SDS011;21993;42.672;23.296;2024-02-16T05:41:11;26.07;;;11.97;;
35891;SDS011;21993;42.672;23.296;2024-02-16T05:43:37;18.57;;;10.40;;
35891;SDS011;21993;42.672;23.296;2024-02-16T05:46:03;19.43;;;11.23;;
35891;SDS011;21993;42.672;23.296;2024-02-16T05:48:34;19.17;;;11.30;;
35891;SDS011;21993;42.672;23.296;2024-02-16T05:51:03;23.07;;;10.50;;
35891;SDS011;21993;42.672;23.296;2024-02-16T05:53:30;20.90;;;11.97;;
35891;SDS011;21993;42.672;23.296;2024-02-16T05:55:56;27.30;;;12.40;;
35891;SDS011;21993;42.672;23.296;2024-02-16T05:58:21;24.87;;;13.03;;
35891;SDS011;21993;42.672;23.296;2024-02-16T06:00:48;23.77;;;11.30;;
35891;SDS011;21993;42.672;23.296;2024-02-16T06:03:14;26.50;;;12.57;;
35891;SDS011;21993;42.672;23.296;2024-02-16T06:05:39;22.10;;;11.30;;
35891;SDS011;21993;42.672;23.296;2024-02-16T06:08:06;24.90;;;13.90;;
35891;SDS011;21993;42.672;23.296;2024-02-16T06:10:32;30.27;;;11.93;;
35891;SDS011;21993;42.672;23.296;2024-02-16T06:12:58;24.60;;;13.53;;
35891;SDS011;21993;42.672;23.296;2024-02-16T06:15:24;21.00;;;12.73;;
35891;SDS011;21993;42.672;23.296;2024-02-16T06:17:51;22.17;;;13.33;;
35891;SDS011;21993;42.672;23.296;2024-02-16T06:20:17;22.50;;;12.07;;
35891;SDS011;21993;42.672;23.296;2024-02-16T06:22:43;22.60;;;12.93;;
35891;SDS011;21993;42.672;23.296;2024-02-16T06:25:08;25.10;;;12.67;;
35891;SDS011;21993;42.672;23.296;2024-02-16T06:27:34;24.00;;;12.77;;
35891;SDS011;21993;42.672;23.296;2024-02-16T06:30:00;36.40;;;16.40;;
35891;SDS011;21993;42.672;23.296;2024-02-16T06:32:26;21.83;;;12.60;;
35891;SDS011;21993;42.672;23.296;2024-02-16T06:34:53;105.97;;;46.63;;
35891;SDS011;21993;42.672;23.296;2024-02-16T06:37:19;85.43;;;40.37;;
35891;SDS011;21993;42.672;23.296;2024-02-16T06:39:44;25.57;;;14.20;;
35891;SDS011;21993;42.672;23.296;2024-02-16T06:42:10;58.70;;;29.93;;
35891;SDS011;21993;42.672;23.296;2024-02-16T06:44:49;24.27;;;16.07;;
35891;SDS011;21993;42.672;23.296;2024-02-16T06:47:36;24.63;;;13.70;;
35891;SDS011;21993;42.672;23.296;2024-02-16T06:50:00;24.50;;;12.33;;
35891;SDS011;21993;42.672;23.296;2024-02-16T06:52:26;20.00;;;11.77;;
35891;SDS011;21993;42.672;23.296;2024-02-16T06:54:51;21.43;;;11.87;;
35891;SDS011;21993;42.672;23.296;2024-02-16T06:57:18;16.07;;;10.27;;
35891;SDS011;21993;42.672;23.296;2024-02-16T06:59:45;16.80;;;11.30;;
35891;SDS011;21993;42.672;23.296;2024-02-16T07:02:10;19.20;;;11.90;;
35891;SDS011;21993;42.672;23.296;2024-02-16T07:04:36;21.97;;;12.77;;
35891;SDS011;21993;42.672;23.296;2024-02-16T07:07:04;25.17;;;11.30;;
35891;SDS011;21993;42.672;23.296;2024-02-16T07:09:31;18.63;;;12.50;;
35891;SDS011;21993;42.672;23.296;2024-02-16T07:11:57;24.83;;;11.70;;
35891;SDS011;21993;42.672;23.296;2024-02-16T07:14:23;23.33;;;12.83;;
35891;SDS011;21993;42.672;23.296;2024-02-16T07:16:49;19.00;;;11.20;;
35891;SDS011;21993;42.672;23.296;2024-02-16T07:19:15;18.20;;;9.47;;
35891;SDS011;21993;42.672;23.296;2024-02-16T07:21:40;18.73;;;11.23;;
35891;SDS011;21993;42.672;23.296;2024-02-16T07:24:06;14.30;;;8.33;;
35891;SDS011;21993;42.672;23.296;2024-02-16T07:26:31;12.47;;;7.37;;
35891;SDS011;21993;42.672;23.296;2024-02-16T07:28:58;11.67;;;7.27;;
35891;SDS011;21993;42.672;23.296;2024-02-16T07:31:24;9.23;;;5.87;;
35891;SDS011;21993;42.672;23.296;2024-02-16T07:33:49;9.80;;;5.47;;
35891;SDS011;21993;42.672;23.296;2024-02-16T07:36:14;8.00;;;5.47;;
35891;SDS011;21993;42.672;23.296;2024-02-16T07:39:01;14.07;;;5.63;;
35891;SDS011;21993;42.672;23.296;2024-02-16T07:41:35;8.87;;;6.03;;
35891;SDS011;21993;42.672;23.296;2024-02-16T07:44:04;8.50;;;6.20;;
35891;SDS011;21993;42.672;23.296;2024-02-16T07:46:31;8.33;;;6.43;;
35891;SDS011;21993;42.672;23.296;2024-02-16T07:48:57;10.97;;;6.27;;
35891;SDS011;21993;42.672;23.296;2024-02-16T07:51:22;9.70;;;6.70;;
35891;SDS011;21993;42.672;23.296;2024-02-16T07:53:49;10.30;;;5.90;;
35891;SDS011;21993;42.672;23.296;2024-02-16T07:56:15;13.47;;;6.83;;
35891;SDS011;21993;42.672;23.296;2024-02-16T07:58:40;13.13;;;6.83;;
35891;SDS011;21993;42.672;23.296;2024-02-16T08:01:07;13.57;;;6.83;;
35891;SDS011;21993;42.672;23.296;2024-02-16T08:03:33;16.10;;;6.50;;
35891;SDS011;21993;42.672;23.296;2024-02-16T08:05:59;10.77;;;6.93;;
35891;SDS011;21993;42.672;23.296;2024-02-16T08:08:24;13.00;;;7.30;;
35891;SDS011;21993;42.672;23.296;2024-02-16T08:10:50;15.77;;;8.17;;
35891;SDS011;21993;42.672;23.296;2024-02-16T08:13:16;11.80;;;8.27;;
35891;SDS011;21993;42.672;23.296;2024-02-16T08:15:43;15.10;;;8.70;;
35891;SDS011;21993;42.672;23.296;2024-02-16T08:18:09;12.30;;;7.80;;
35891;SDS011;21993;42.672;23.296;2024-02-16T08:20:36;13.80;;;8.47;;
35891;SDS011;21993;42.672;23.296;2024-02-16T08:23:02;17.00;;;7.67;;
35891;SDS011;21993;42.672;23.296;2024-02-16T08:25:27;11.43;;;7.53;;
35891;SDS011;21993;42.672;23.296;2024-02-16T08:27:55;12.30;;;7.97;;
35891;SDS011;21993;42.672;23.296;2024-02-16T08:30:21;14.80;;;8.47;;
35891;SDS011;21993;42.672;23.296;2024-02-16T08:32:47;11.30;;;7.50;;
35891;SDS011;21993;42.672;23.296;2024-02-16T08:35:13;13.77;;;8.13;;
35891;SDS011;21993;42.672;23.296;2024-02-16T08:37:39;17.13;;;9.10;;
35891;SDS011;21993;42.672;23.296;2024-02-16T08:40:05;15.83;;;8.50;;
35891;SDS011;21993;42.672;23.296;2024-02-16T08:42:31;16.43;;;8.30;;
35891;SDS011;21993;42.672;23.296;2024-02-16T08:44:57;15.23;;;7.97;;
35891;SDS011;21993;42.672;23.296;2024-02-16T08:47:25;17.17;;;9.60;;
35891;SDS011;21993;42.672;23.296;2024-02-16T08:49:51;11.70;;;7.73;;
35891;SDS011;21993;42.672;23.296;2024-02-16T08:52:17;21.17;;;9.17;;
35891;SDS011;21993;42.672;23.296;2024-02-16T08:54:42;15.27;;;9.40;;
35891;SDS011;21993;42.672;23.296;2024-02-16T08:57:08;12.87;;;9.43;;
35891;SDS011;21993;42.672;23.296;2024-02-16T08:59:35;16.57;;;9.73;;
35891;SDS011;21993;42.672;23.296;2024-02-16T09:02:00;15.13;;;9.03;;
35891;SDS011;21993;42.672;23.296;2024-02-16T09:04:26;16.67;;;8.93;;
35891;SDS011;21993;42.672;23.296;2024-02-16T09:06:51;17.77;;;9.63;;
35891;SDS011;21993;42.672;23.296;2024-02-16T09:09:18;21.03;;;11.57;;
35891;SDS011;21993;42.672;23.296;2024-02-16T09:11:44;15.23;;;10.47;;
35891;SDS011;21993;42.672;23.296;2024-02-16T09:14:09;13.13;;;10.53;;
35891;SDS011;21993;42.672;23.296;2024-02-16T09:16:35;15.13;;;8.67;;
35891;SDS011;21993;42.672;23.296;2024-02-16T09:19:00;16.07;;;9.30;;
35891;SDS011;21993;42.672;23.296;2024-02-16T09:21:33;15.87;;;10.43;;
35891;SDS011;21993;42.672;23.296;2024-02-16T09:23:59;20.10;;;10.70;;
35891;SDS011;21993;42.672;23.296;2024-02-16T09:26:26;15.80;;;6.77;;
35891;SDS011;21993;42.672;23.296;2024-02-16T09:28:55;11.70;;;5.90;;
35891;SDS011;21993;42.672;23.296;2024-02-16T09:31:22;11.13;;;6.53;;
35891;SDS011;21993;42.672;23.296;2024-02-16T09:33:48;14.33;;;7.20;;
35891;SDS011;21993;42.672;23.296;2024-02-16T09:36:13;9.47;;;6.10;;
35891;SDS011;21993;42.672;23.296;2024-02-16T09:38:39;11.47;;;6.10;;
35891;SDS011;21993;42.672;23.296;2024-02-16T09:41:04;9.43;;;5.60;;
35891;SDS011;21993;42.672;23.296;2024-02-16T09:43:30;7.97;;;5.60;;
35891;SDS011;21993;42.672;23.296;2024-02-16T09:45:56;7.43;;;5.77;;
35891;SDS011;21993;42.672;23.296;2024-02-16T09:48:25;8.00;;;4.90;;
35891;SDS011;21993;42.672;23.296;2024-02-16T09:50:55;6.63;;;5.17;;
35891;SDS011;21993;42.672;23.296;2024-02-16T09:53:25;7.83;;;4.70;;
35891;SDS011;21993;42.672;23.296;2024-02-16T09:55:51;13.60;;;4.67;;
35891;SDS011;21993;42.672;23.296;2024-02-16T09:58:17;8.03;;;4.37;;
35891;SDS011;21993;42.672;23.296;2024-02-16T10:00:53;5.10;;;4.50;;
35891;SDS011;21993;42.672;23.296;2024-02-16T10:06:05;4.30;;;3.80;;
35891;SDS011;21993;42.672;23.296;2024-02-16T10:08:35;3.87;;;3.47;;
35891;SDS011;21993;42.672;23.296;2024-02-16T10:11:19;6.63;;;4.40;;
35891;SDS011;21993;42.672;23.296;2024-02-16T10:14:07;7.33;;;5.03;;
35891;SDS011;21993;42.672;23.296;2024-02-16T10:16:33;7.30;;;4.93;;
35891;SDS011;21993;42.672;23.296;2024-02-16T10:19:05;6.93;;;5.23;;
35891;SDS011;21993;42.672;23.296;2024-02-16T10:21:32;6.37;;;4.47;;
35891;SDS011;21993;42.672;23.296;2024-02-16T10:24:05;6.10;;;3.93;;
35891;SDS011;21993;42.672;23.296;2024-02-16T10:26:35;8.67;;;4.43;;
35891;SDS011;21993;42.672;23.296;2024-02-16T10:29:05;4.57;;;4.03;;
35891;SDS011;21993;42.672;23.296;2024-02-16T10:31:33;6.07;;;4.70;;
35891;SDS011;21993;42.672;23.296;2024-02-16T10:34:08;5.83;;;4.33;;
35891;SDS011;21993;42.672;23.296;2024-02-16T10:36:38;9.30;;;4.90;;
35891;SDS011;21993;42.672;23.296;2024-02-16T10:39:05;5.97;;;3.87;;
35891;SDS011;21993;42.672;23.296;2024-02-16T10:41:33;4.97;;;4.03;;
35891;SDS011;21993;42.672;23.296;2024-02-16T10:44:00;5.50;;;4.37;;
35891;SDS011;21993;42.672;23.296;2024-02-16T10:46:27;4.57;;;3.93;;
35891;SDS011;21993;42.672;23.296;2024-02-16T10:48:53;4.90;;;3.93;;
35891;SDS011;21993;42.672;23.296;2024-02-16T10:51:20;7.03;;;5.53;;
35891;SDS011;21993;42.672;23.296;2024-02-16T10:53:50;7.43;;;4.90;;
35891;SDS011;21993;42.672;23.296;2024-02-16T10:56:34;6.23;;;5.00;;
35891;SDS011;21993;42.672;23.296;2024-02-16T10:59:01;7.17;;;4.63;;
35891;SDS011;21993;42.672;23.296;2024-02-16T11:01:40;7.27;;;4.67;;
35891;SDS011;21993;42.672;23.296;2024-02-16T11:04:19;5.27;;;4.47;;
35891;SDS011;21993;42.672;23.296;2024-02-16T11:06:53;6.30;;;4.40;;
35891;SDS011;21993;42.672;23.296;2024-02-16T11:09:34;8.00;;;5.50;;
35891;SDS011;21993;42.672;23.296;2024-02-16T11:12:01;7.17;;;4.90;;
35891;SDS011;21993;42.672;23.296;2024-02-16T11:14:37;7.53;;;4.60;;
35891;SDS011;21993;42.672;23.296;2024-02-16T11:17:11;5.90;;;4.57;;
35891;SDS011;21993;42.672;23.296;2024-02-16T11:19:41;9.27;;;5.80;;
35891;SDS011;21993;42.672;23.296;2024-02-16T11:22:08;10.00;;;4.43;;
35891;SDS011;21993;42.672;23.296;2024-02-16T11:24:34;6.17;;;4.37;;
35891;SDS011;21993;42.672;23.296;2024-02-16T11:27:01;9.40;;;4.63;;
35891;SDS011;21993;42.672;23.296;2024-02-16T11:29:32;7.60;;;5.43;;
35891;SDS011;21993;42.672;23.296;2024-02-16T11:31:59;7.10;;;4.73;;
35891;SDS011;21993;42.672;23.296;2024-02-16T11:34:26;8.60;;;5.23;;
35891;SDS011;21993;42.672;23.296;2024-02-16T11:36:55;5.77;;;4.70;;
35891;SDS011;21993;42.672;23.296;2024-02-16T11:39:21;5.63;;;4.47;;
35891;SDS011;21993;42.672;23.296;2024-02-16T11:41:47;8.40;;;5.13;;
35891;SDS011;21993;42.672;23.296;2024-02-16T11:44:13;7.03;;;4.97;;
35891;SDS011;21993;42.672;23.296;2024-02-16T11:46:42;8.03;;;4.97;;
35891;SDS011;21993;42.672;23.296;2024-02-16T11:49:08;5.90;;;4.90;;
35891;SDS011;21993;42.672;23.296;2024-02-16T11:51:34;7.40;;;5.03;;
35891;SDS011;21993;42.672;23.296;2024-02-16T11:53:59;7.77;;;4.80;;
35891;SDS011;21993;42.672;23.296;2024-02-16T11:56:25;5.90;;;4.53;;
35891;SDS011;21993;42.672;23.296;2024-02-16T11:58:51;5.97;;;4.30;;
35891;SDS011;21993;42.672;23.296;2024-02-16T12:01:17;5.13;;;4.27;;
35891;SDS011;21993;42.672;23.296;2024-02-16T12:03:43;8.23;;;4.07;;
35891;SDS011;21993;42.672;23.296;2024-02-16T12:06:08;7.13;;;4.03;;
35891;SDS011;21993;42.672;23.296;2024-02-16T12:08:34;5.83;;;4.23;;
35891;SDS011;21993;42.672;23.296;2024-02-16T12:11:00;7.00;;;4.70;;
35891;SDS011;21993;42.672;23.296;2024-02-16T12:13:27;5.30;;;4.10;;
35891;SDS011;21993;42.672;23.296;2024-02-16T12:15:52;12.23;;;4.53;;
35891;SDS011;21993;42.672;23.296;2024-02-16T12:18:22;12.43;;;4.60;;
35891;SDS011;21993;42.672;23.296;2024-02-16T12:21:04;6.80;;;4.73;;
35891;SDS011;21993;42.672;23.296;2024-02-16T12:23:31;5.50;;;4.00;;
35891;SDS011;21993;42.672;23.296;2024-02-16T12:25:58;5.33;;;4.00;;
35891;SDS011;21993;42.672;23.296;2024-02-16T12:28:27;7.30;;;4.77;;
35891;SDS011;21993;42.672;23.296;2024-02-16T12:30:57;4.53;;;3.90;;
35891;SDS011;21993;42.672;23.296;2024-02-16T12:33:24;4.87;;;4.17;;
35891;SDS011;21993;42.672;23.296;2024-02-16T12:35:50;6.37;;;4.37;;
35891;SDS011;21993;42.672;23.296;2024-02-16T12:38:16;5.33;;;3.53;;
35891;SDS011;21993;42.672;23.296;2024-02-16T12:40:44;4.77;;;4.27;;
35891;SDS011;21993;42.672;23.296;2024-02-16T12:43:13;4.87;;;3.80;;
35891;SDS011;21993;42.672;23.296;2024-02-16T12:45:39;5.13;;;4.50;;
35891;SDS011;21993;42.672;23.296;2024-02-16T12:48:05;6.40;;;4.37;;
35891;SDS011;21993;42.672;23.296;2024-02-16T12:50:31;13.40;;;4.90;;
35891;SDS011;21993;42.672;23.296;2024-02-16T12:52:57;6.00;;;4.20;;
35891;SDS011;21993;42.672;23.296;2024-02-16T12:55:26;5.60;;;4.03;;
35891;SDS011;21993;42.672;23.296;2024-02-16T12:57:53;5.87;;;4.87;;
35891;SDS011;21993;42.672;23.296;2024-02-16T13:00:18;6.83;;;4.63;;
35891;SDS011;21993;42.672;23.296;2024-02-16T13:02:44;5.63;;;4.67;;
35891;SDS011;21993;42.672;23.296;2024-02-16T13:05:09;6.97;;;4.80;;
35891;SDS011;21993;42.672;23.296;2024-02-16T13:07:36;5.70;;;4.03;;
35891;SDS011;21993;42.672;23.296;2024-02-16T13:10:06;5.97;;;4.60;;
35891;SDS011;21993;42.672;23.296;2024-02-16T13:12:32;6.83;;;4.40;;
35891;SDS011;21993;42.672;23.296;2024-02-16T13:14:58;8.43;;;4.47;;
35891;SDS011;21993;42.672;23.296;2024-02-16T13:17:23;8.70;;;4.73;;
35891;SDS011;21993;42.672;23.296;2024-02-16T13:19:52;8.10;;;4.67;;
35891;SDS011;21993;42.672;23.296;2024-02-16T13:22:18;6.27;;;4.80;;
35891;SDS011;21993;42.672;23.296;2024-02-16T13:24:43;6.33;;;4.30;;
35891;SDS011;21993;42.672;23.296;2024-02-16T13:27:10;6.50;;;4.70;;
35891;SDS011;21993;42.672;23.296;2024-02-16T13:29:35;6.40;;;4.47;;
35891;SDS011;21993;42.672;23.296;2024-02-16T13:32:01;5.37;;;3.97;;
35891;SDS011;21993;42.672;23.296;2024-02-16T13:34:28;6.57;;;4.67;;
35891;SDS011;21993;42.672;23.296;2024-02-16T13:36:55;8.03;;;4.80;;
35891;SDS011;21993;42.672;23.296;2024-02-16T13:39:20;6.40;;;4.53;;
35891;SDS011;21993;42.672;23.296;2024-02-16T13:41:47;5.20;;;4.47;;
35891;SDS011;21993;42.672;23.296;2024-02-16T13:44:13;6.67;;;3.93;;
35891;SDS011;21993;42.672;23.296;2024-02-16T13:46:39;6.13;;;4.03;;
35891;SDS011;21993;42.672;23.296;2024-02-16T13:49:05;7.37;;;3.87;;
35891;SDS011;21993;42.672;23.296;2024-02-16T13:51:30;6.30;;;4.57;;
35891;SDS011;21993;42.672;23.296;2024-02-16T13:53:56;6.47;;;5.27;;
35891;SDS011;21993;42.672;23.296;2024-02-16T13:56:21;8.40;;;5.43;;
35891;SDS011;21993;42.672;23.296;2024-02-16T13:58:47;7.67;;;4.20;;
35891;SDS011;21993;42.672;23.296;2024-02-16T14:01:12;5.57;;;4.60;;
35891;SDS011;21993;42.672;23.296;2024-02-16T14:03:39;6.07;;;4.27;;
35891;SDS011;21993;42.672;23.296;2024-02-16T14:06:05;8.63;;;3.83;;
35891;SDS011;21993;42.672;23.296;2024-02-16T14:08:32;4.53;;;3.37;;
35891;SDS011;21993;42.672;23.296;2024-02-16T14:10:58;6.90;;;4.50;;
35891;SDS011;21993;42.672;23.296;2024-02-16T14:13:23;11.30;;;4.27;;
35891;SDS011;21993;42.672;23.296;2024-02-16T14:15:50;5.93;;;4.57;;
35891;SDS011;21993;42.672;23.296;2024-02-16T14:18:15;6.77;;;4.00;;
35891;SDS011;21993;42.672;23.296;2024-02-16T14:20:41;8.13;;;4.97;;
35891;SDS011;21993;42.672;23.296;2024-02-16T14:23:06;6.40;;;4.67;;